sensor_id;sensor_type;location;lat;lon;timestamp;P1;durP1;ratioP1;P2;durP2;ratioP2
49440;SDS011;35317;51.978;6.296;2022-07-29T00:02:20;5.95;;;1.63;;
49440;SDS011;35317;51.978;6.296;2022-07-29T00:07:21;1.95;;;1.23;;
49440;SDS011;35317;51.978;6.296;2022-07-29T00:12:22;6.50;;;1.48;;
49440;SDS011;35317;51.978;6.296;2022-07-29T00:17:25;5.03;;;1.20;;
49440;SDS011;35317;51.978;6.296;2022-07-29T00:22:25;4.47;;;1.20;;
49440;SDS011;35317;51.978;6.296;2022-07-29T00:27:26;8.32;;;1.80;;
49440;SDS011;35317;51.978;6.296;2022-07-29T00:32:27;2.28;;;1.40;;
49440;SDS011;35317;51.978;6.296;2022-07-29T00:37:28;2.25;;;1.30;;
49440;SDS011;35317;51.978;6.296;2022-07-29T00:42:28;6.45;;;1.30;;
49440;SDS011;35317;51.978;6.296;2022-07-29T00:47:29;3.75;;;1.60;;
49440;SDS011;35317;51.978;6.296;2022-07-29T00:52:30;3.53;;;1.50;;
49440;SDS011;35317;51.978;6.296;2022-07-29T00:57:31;5.68;;;1.55;;
49440;SDS011;35317;51.978;6.296;2022-07-29T01:02:32;3.50;;;1.58;;
49440;SDS011;35317;51.978;6.296;2022-07-29T01:07:36;3.03;;;1.27;;
49440;SDS011;35317;51.978;6.296;2022-07-29T01:12:39;4.97;;;1.33;;
49440;SDS011;35317;51.978;6.296;2022-07-29T01:17:43;3.05;;;1.42;;
49440;SDS011;35317;51.978;6.296;2022-07-29T01:29:07;3.97;;;1.77;;
49440;SDS011;35317;51.978;6.296;2022-07-29T01:34:41;5.60;;;1.48;;
49440;SDS011;35317;51.978;6.296;2022-07-29T01:40:37;5.25;;;1.70;;
49440;SDS011;35317;51.978;6.296;2022-07-29T01:45:48;3.63;;;1.55;;
49440;SDS011;35317;51.978;6.296;2022-07-29T01:56:35;3.90;;;1.65;;
49440;SDS011;35317;51.978;6.296;2022-07-29T02:01:39;6.70;;;1.70;;
49440;SDS011;35317;51.978;6.296;2022-07-29T02:06:43;4.00;;;1.40;;
49440;SDS011;35317;51.978;6.296;2022-07-29T02:11:51;5.30;;;1.80;;
49440;SDS011;35317;51.978;6.296;2022-07-29T02:16:54;3.53;;;1.63;;
49440;SDS011;35317;51.978;6.296;2022-07-29T02:21:57;6.13;;;1.65;;
49440;SDS011;35317;51.978;6.296;2022-07-29T02:27:00;4.25;;;1.70;;
49440;SDS011;35317;51.978;6.296;2022-07-29T02:32:02;4.20;;;1.58;;
49440;SDS011;35317;51.978;6.296;2022-07-29T02:37:04;3.65;;;1.80;;
49440;SDS011;35317;51.978;6.296;2022-07-29T02:42:07;5.88;;;1.88;;
49440;SDS011;35317;51.978;6.296;2022-07-29T02:47:13;4.18;;;1.67;;
49440;SDS011;35317;51.978;6.296;2022-07-29T02:52:22;3.78;;;1.80;;
49440;SDS011;35317;51.978;6.296;2022-07-29T02:58:08;6.22;;;2.03;;
49440;SDS011;35317;51.978;6.296;2022-07-29T03:03:35;3.58;;;1.70;;
49440;SDS011;35317;51.978;6.296;2022-07-29T03:08:37;3.90;;;1.55;;
49440;SDS011;35317;51.978;6.296;2022-07-29T03:13:39;5.25;;;1.90;;
49440;SDS011;35317;51.978;6.296;2022-07-29T03:18:41;5.07;;;1.85;;
49440;SDS011;35317;51.978;6.296;2022-07-29T03:23:45;5.15;;;1.98;;
49440;SDS011;35317;51.978;6.296;2022-07-29T03:28:46;4.47;;;2.20;;
49440;SDS011;35317;51.978;6.296;2022-07-29T03:33:46;3.20;;;2.00;;
49440;SDS011;35317;51.978;6.296;2022-07-29T03:38:47;6.00;;;2.20;;
49440;SDS011;35317;51.978;6.296;2022-07-29T03:43:49;5.72;;;2.47;;
49440;SDS011;35317;51.978;6.296;2022-07-29T03:48:52;6.13;;;2.60;;
49440;SDS011;35317;51.978;6.296;2022-07-29T03:54:00;3.78;;;2.30;;
49440;SDS011;35317;51.978;6.296;2022-07-29T03:59:02;7.60;;;3.73;;
49440;SDS011;35317;51.978;6.296;2022-07-29T04:04:04;3.95;;;2.67;;
49440;SDS011;35317;51.978;6.296;2022-07-29T04:09:05;6.93;;;3.20;;
49440;SDS011;35317;51.978;6.296;2022-07-29T04:14:06;5.57;;;3.40;;
49440;SDS011;35317;51.978;6.296;2022-07-29T04:19:07;7.40;;;3.50;;
49440;SDS011;35317;51.978;6.296;2022-07-29T04:24:08;8.05;;;4.07;;
49440;SDS011;35317;51.978;6.296;2022-07-29T04:29:09;6.22;;;3.60;;
49440;SDS011;35317;51.978;6.296;2022-07-29T04:34:11;7.78;;;3.35;;
49440;SDS011;35317;51.978;6.296;2022-07-29T04:39:13;6.07;;;3.77;;
49440;SDS011;35317;51.978;6.296;2022-07-29T04:44:14;10.23;;;3.85;;
49440;SDS011;35317;51.978;6.296;2022-07-29T04:49:14;7.47;;;4.13;;
49440;SDS011;35317;51.978;6.296;2022-07-29T04:54:15;7.97;;;3.90;;
49440;SDS011;35317;51.978;6.296;2022-07-29T04:59:16;7.35;;;3.83;;
49440;SDS011;35317;51.978;6.296;2022-07-29T05:04:16;4.75;;;4.00;;
49440;SDS011;35317;51.978;6.296;2022-07-29T05:09:17;6.78;;;3.80;;
49440;SDS011;35317;51.978;6.296;2022-07-29T05:14:18;5.60;;;3.38;;
49440;SDS011;35317;51.978;6.296;2022-07-29T05:19:19;7.18;;;4.32;;
49440;SDS011;35317;51.978;6.296;2022-07-29T05:24:19;5.30;;;3.95;;
49440;SDS011;35317;51.978;6.296;2022-07-29T05:29:20;9.05;;;4.57;;
49440;SDS011;35317;51.978;6.296;2022-07-29T05:34:21;7.43;;;3.95;;
49440;SDS011;35317;51.978;6.296;2022-07-29T05:39:22;5.93;;;3.47;;
49440;SDS011;35317;51.978;6.296;2022-07-29T05:44:23;6.93;;;3.88;;
49440;SDS011;35317;51.978;6.296;2022-07-29T05:49:24;8.10;;;3.75;;
49440;SDS011;35317;51.978;6.296;2022-07-29T05:54:25;5.80;;;3.88;;
49440;SDS011;35317;51.978;6.296;2022-07-29T05:59:26;10.57;;;3.80;;
49440;SDS011;35317;51.978;6.296;2022-07-29T06:04:27;6.35;;;3.75;;
49440;SDS011;35317;51.978;6.296;2022-07-29T06:09:27;7.40;;;3.90;;
49440;SDS011;35317;51.978;6.296;2022-07-29T06:14:28;6.43;;;3.53;;
49440;SDS011;35317;51.978;6.296;2022-07-29T06:19:30;6.53;;;3.60;;
49440;SDS011;35317;51.978;6.296;2022-07-29T06:24:30;8.35;;;3.70;;
49440;SDS011;35317;51.978;6.296;2022-07-29T06:29:31;8.57;;;3.90;;
49440;SDS011;35317;51.978;6.296;2022-07-29T06:34:32;7.32;;;3.72;;
49440;SDS011;35317;51.978;6.296;2022-07-29T06:39:36;6.57;;;3.67;;
49440;SDS011;35317;51.978;6.296;2022-07-29T06:49:37;5.93;;;3.55;;
49440;SDS011;35317;51.978;6.296;2022-07-29T06:54:38;5.55;;;3.63;;
49440;SDS011;35317;51.978;6.296;2022-07-29T06:59:39;6.63;;;3.65;;
49440;SDS011;35317;51.978;6.296;2022-07-29T07:04:40;5.30;;;3.20;;
49440;SDS011;35317;51.978;6.296;2022-07-29T07:09:41;7.97;;;3.30;;
49440;SDS011;35317;51.978;6.296;2022-07-29T07:14:42;6.50;;;3.17;;
49440;SDS011;35317;51.978;6.296;2022-07-29T07:19:43;5.70;;;3.03;;
49440;SDS011;35317;51.978;6.296;2022-07-29T07:24:45;6.07;;;3.88;;
49440;SDS011;35317;51.978;6.296;2022-07-29T07:29:45;9.77;;;3.90;;
49440;SDS011;35317;51.978;6.296;2022-07-29T07:34:46;8.45;;;3.17;;
49440;SDS011;35317;51.978;6.296;2022-07-29T07:39:47;7.68;;;3.20;;
49440;SDS011;35317;51.978;6.296;2022-07-29T07:44:47;8.90;;;3.38;;
49440;SDS011;35317;51.978;6.296;2022-07-29T07:49:51;4.47;;;3.17;;
49440;SDS011;35317;51.978;6.296;2022-07-29T07:54:53;4.93;;;3.05;;
49440;SDS011;35317;51.978;6.296;2022-07-29T07:59:53;5.18;;;2.95;;
49440;SDS011;35317;51.978;6.296;2022-07-29T08:04:54;6.20;;;3.20;;
49440;SDS011;35317;51.978;6.296;2022-07-29T08:09:55;6.68;;;3.03;;
49440;SDS011;35317;51.978;6.296;2022-07-29T08:14:56;4.82;;;2.70;;
49440;SDS011;35317;51.978;6.296;2022-07-29T08:19:56;8.15;;;3.28;;
49440;SDS011;35317;51.978;6.296;2022-07-29T08:24:57;7.57;;;3.35;;
49440;SDS011;35317;51.978;6.296;2022-07-29T08:29:58;5.75;;;3.20;;
49440;SDS011;35317;51.978;6.296;2022-07-29T08:34:59;6.93;;;4.00;;
49440;SDS011;35317;51.978;6.296;2022-07-29T08:40:00;5.25;;;3.53;;
49440;SDS011;35317;51.978;6.296;2022-07-29T08:45:01;10.63;;;3.97;;
49440;SDS011;35317;51.978;6.296;2022-07-29T08:50:03;8.88;;;3.83;;
49440;SDS011;35317;51.978;6.296;2022-07-29T08:55:06;7.20;;;4.13;;
49440;SDS011;35317;51.978;6.296;2022-07-29T09:00:08;6.10;;;4.10;;
49440;SDS011;35317;51.978;6.296;2022-07-29T09:05:10;7.18;;;4.07;;
49440;SDS011;35317;51.978;6.296;2022-07-29T09:10:11;8.65;;;4.32;;
49440;SDS011;35317;51.978;6.296;2022-07-29T09:15:12;6.75;;;3.92;;
49440;SDS011;35317;51.978;6.296;2022-07-29T09:20:14;9.63;;;3.92;;
49440;SDS011;35317;51.978;6.296;2022-07-29T09:30:52;8.45;;;3.95;;
49440;SDS011;35317;51.978;6.296;2022-07-29T09:36:05;7.75;;;4.25;;
49440;SDS011;35317;51.978;6.296;2022-07-29T09:41:09;7.95;;;4.00;;
49440;SDS011;35317;51.978;6.296;2022-07-29T09:46:13;12.68;;;3.92;;
49440;SDS011;35317;51.978;6.296;2022-07-29T09:51:20;6.70;;;4.80;;
49440;SDS011;35317;51.978;6.296;2022-07-29T09:56:37;7.70;;;4.25;;
49440;SDS011;35317;51.978;6.296;2022-07-29T10:01:42;8.70;;;4.35;;
49440;SDS011;35317;51.978;6.296;2022-07-29T10:06:58;5.97;;;4.00;;
49440;SDS011;35317;51.978;6.296;2022-07-29T10:17:08;7.43;;;3.50;;
49440;SDS011;35317;51.978;6.296;2022-07-29T10:22:11;7.43;;;3.60;;
49440;SDS011;35317;51.978;6.296;2022-07-29T10:27:12;7.07;;;3.63;;
49440;SDS011;35317;51.978;6.296;2022-07-29T10:32:16;10.38;;;3.40;;
49440;SDS011;35317;51.978;6.296;2022-07-29T10:37:36;6.90;;;3.55;;
49440;SDS011;35317;51.978;6.296;2022-07-29T10:42:53;10.18;;;3.55;;
49440;SDS011;35317;51.978;6.296;2022-07-29T10:48:04;11.48;;;3.53;;
49440;SDS011;35317;51.978;6.296;2022-07-29T10:53:06;8.60;;;3.50;;
49440;SDS011;35317;51.978;6.296;2022-07-29T11:09:04;4.05;;;2.75;;
49440;SDS011;35317;51.978;6.296;2022-07-29T11:14:18;7.63;;;2.50;;
49440;SDS011;35317;51.978;6.296;2022-07-29T11:25:42;6.03;;;2.67;;
49440;SDS011;35317;51.978;6.296;2022-07-29T11:30:47;5.35;;;2.55;;
49440;SDS011;35317;51.978;6.296;2022-07-29T11:36:06;6.47;;;2.58;;
49440;SDS011;35317;51.978;6.296;2022-07-29T11:41:25;6.93;;;2.35;;
49440;SDS011;35317;51.978;6.296;2022-07-29T11:46:48;4.68;;;2.17;;
49440;SDS011;35317;51.978;6.296;2022-07-29T11:51:51;6.60;;;2.13;;
49440;SDS011;35317;51.978;6.296;2022-07-29T11:56:53;3.28;;;1.73;;
49440;SDS011;35317;51.978;6.296;2022-07-29T12:01:55;6.20;;;1.83;;
49440;SDS011;35317;51.978;6.296;2022-07-29T12:06:58;5.55;;;1.80;;
49440;SDS011;35317;51.978;6.296;2022-07-29T12:11:59;4.97;;;1.90;;
49440;SDS011;35317;51.978;6.296;2022-07-29T12:16:59;5.18;;;1.83;;
49440;SDS011;35317;51.978;6.296;2022-07-29T12:22:00;7.10;;;1.40;;
49440;SDS011;35317;51.978;6.296;2022-07-29T12:27:02;4.30;;;1.60;;
49440;SDS011;35317;51.978;6.296;2022-07-29T12:32:03;7.07;;;1.70;;
49440;SDS011;35317;51.978;6.296;2022-07-29T12:37:06;7.55;;;1.58;;
49440;SDS011;35317;51.978;6.296;2022-07-29T12:42:13;4.05;;;1.48;;
49440;SDS011;35317;51.978;6.296;2022-07-29T12:47:15;9.02;;;1.50;;
49440;SDS011;35317;51.978;6.296;2022-07-29T12:52:28;4.38;;;1.75;;
49440;SDS011;35317;51.978;6.296;2022-07-29T12:57:32;8.55;;;2.30;;
49440;SDS011;35317;51.978;6.296;2022-07-29T13:02:54;9.23;;;1.90;;
49440;SDS011;35317;51.978;6.296;2022-07-29T13:08:09;8.70;;;1.70;;
49440;SDS011;35317;51.978;6.296;2022-07-29T13:13:14;6.63;;;2.15;;
49440;SDS011;35317;51.978;6.296;2022-07-29T13:18:29;5.63;;;1.77;;
49440;SDS011;35317;51.978;6.296;2022-07-29T13:23:31;5.05;;;1.90;;
49440;SDS011;35317;51.978;6.296;2022-07-29T13:28:32;5.55;;;1.70;;
49440;SDS011;35317;51.978;6.296;2022-07-29T13:33:34;6.30;;;2.10;;
49440;SDS011;35317;51.978;6.296;2022-07-29T13:38:34;6.85;;;2.28;;
49440;SDS011;35317;51.978;6.296;2022-07-29T13:43:35;7.50;;;2.03;;
49440;SDS011;35317;51.978;6.296;2022-07-29T13:48:36;7.10;;;1.73;;
49440;SDS011;35317;51.978;6.296;2022-07-29T13:53:37;7.35;;;2.00;;
49440;SDS011;35317;51.978;6.296;2022-07-29T13:58:38;5.38;;;1.73;;
49440;SDS011;35317;51.978;6.296;2022-07-29T14:03:38;6.75;;;1.92;;
49440;SDS011;35317;51.978;6.296;2022-07-29T14:08:41;8.10;;;2.33;;
49440;SDS011;35317;51.978;6.296;2022-07-29T14:13:42;5.95;;;1.55;;
49440;SDS011;35317;51.978;6.296;2022-07-29T14:18:43;3.70;;;1.60;;
49440;SDS011;35317;51.978;6.296;2022-07-29T14:23:44;2.65;;;1.63;;
49440;SDS011;35317;51.978;6.296;2022-07-29T14:28:45;4.18;;;1.70;;
49440;SDS011;35317;51.978;6.296;2022-07-29T14:33:46;6.75;;;2.10;;
49440;SDS011;35317;51.978;6.296;2022-07-29T14:38:46;8.77;;;2.15;;
49440;SDS011;35317;51.978;6.296;2022-07-29T14:43:47;4.47;;;2.20;;
49440;SDS011;35317;51.978;6.296;2022-07-29T14:48:48;5.35;;;2.50;;
49440;SDS011;35317;51.978;6.296;2022-07-29T14:53:49;6.45;;;2.50;;
49440;SDS011;35317;51.978;6.296;2022-07-29T14:58:50;4.03;;;2.08;;
49440;SDS011;35317;51.978;6.296;2022-07-29T15:03:51;5.40;;;1.88;;
49440;SDS011;35317;51.978;6.296;2022-07-29T15:08:52;5.88;;;2.15;;
49440;SDS011;35317;51.978;6.296;2022-07-29T15:13:52;5.93;;;2.95;;
49440;SDS011;35317;51.978;6.296;2022-07-29T15:18:53;8.23;;;3.33;;
49440;SDS011;35317;51.978;6.296;2022-07-29T15:23:54;10.80;;;3.63;;
49440;SDS011;35317;51.978;6.296;2022-07-29T15:28:55;6.63;;;3.50;;
49440;SDS011;35317;51.978;6.296;2022-07-29T15:33:56;5.05;;;3.13;;
49440;SDS011;35317;51.978;6.296;2022-07-29T15:38:56;5.43;;;2.17;;
49440;SDS011;35317;51.978;6.296;2022-07-29T15:43:57;7.80;;;2.65;;
49440;SDS011;35317;51.978;6.296;2022-07-29T15:48:58;8.32;;;1.90;;
49440;SDS011;35317;51.978;6.296;2022-07-29T15:54:03;4.90;;;1.88;;
49440;SDS011;35317;51.978;6.296;2022-07-29T15:59:04;6.07;;;1.70;;
49440;SDS011;35317;51.978;6.296;2022-07-29T16:04:05;5.50;;;1.90;;
49440;SDS011;35317;51.978;6.296;2022-07-29T16:09:06;4.57;;;2.20;;
49440;SDS011;35317;51.978;6.296;2022-07-29T16:14:06;13.43;;;2.13;;
49440;SDS011;35317;51.978;6.296;2022-07-29T16:19:10;5.13;;;1.50;;
49440;SDS011;35317;51.978;6.296;2022-07-29T16:24:11;5.93;;;1.80;;
49440;SDS011;35317;51.978;6.296;2022-07-29T16:29:11;4.00;;;1.50;;
49440;SDS011;35317;51.978;6.296;2022-07-29T16:34:12;7.20;;;1.63;;
49440;SDS011;35317;51.978;6.296;2022-07-29T16:39:13;4.65;;;1.63;;
49440;SDS011;35317;51.978;6.296;2022-07-29T16:44:14;5.07;;;1.75;;
49440;SDS011;35317;51.978;6.296;2022-07-29T16:49:14;2.53;;;1.58;;
49440;SDS011;35317;51.978;6.296;2022-07-29T16:54:16;5.88;;;2.00;;
49440;SDS011;35317;51.978;6.296;2022-07-29T16:59:16;5.50;;;1.80;;
49440;SDS011;35317;51.978;6.296;2022-07-29T17:04:17;6.38;;;2.00;;
49440;SDS011;35317;51.978;6.296;2022-07-29T17:09:18;7.20;;;2.22;;
49440;SDS011;35317;51.978;6.296;2022-07-29T17:14:23;3.08;;;1.83;;
49440;SDS011;35317;51.978;6.296;2022-07-29T17:19:30;5.85;;;2.13;;
49440;SDS011;35317;51.978;6.296;2022-07-29T17:24:34;7.32;;;2.50;;
49440;SDS011;35317;51.978;6.296;2022-07-29T17:29:35;6.68;;;2.20;;
49440;SDS011;35317;51.978;6.296;2022-07-29T17:34:37;7.10;;;2.25;;
49440;SDS011;35317;51.978;6.296;2022-07-29T17:39:39;4.53;;;1.90;;
49440;SDS011;35317;51.978;6.296;2022-07-29T17:44:41;6.70;;;2.10;;
49440;SDS011;35317;51.978;6.296;2022-07-29T17:49:42;4.43;;;2.13;;
49440;SDS011;35317;51.978;6.296;2022-07-29T17:54:44;4.05;;;2.03;;
49440;SDS011;35317;51.978;6.296;2022-07-29T17:59:45;8.95;;;2.03;;
49440;SDS011;35317;51.978;6.296;2022-07-29T18:04:45;5.05;;;2.17;;
49440;SDS011;35317;51.978;6.296;2022-07-29T18:09:46;4.90;;;2.20;;
49440;SDS011;35317;51.978;6.296;2022-07-29T18:14:47;5.28;;;2.15;;
49440;SDS011;35317;51.978;6.296;2022-07-29T18:19:48;4.90;;;1.90;;
49440;SDS011;35317;51.978;6.296;2022-07-29T18:24:48;7.53;;;2.70;;
49440;SDS011;35317;51.978;6.296;2022-07-29T18:29:49;4.22;;;1.95;;
49440;SDS011;35317;51.978;6.296;2022-07-29T18:34:50;5.05;;;2.30;;
49440;SDS011;35317;51.978;6.296;2022-07-29T18:39:51;4.03;;;2.00;;
49440;SDS011;35317;51.978;6.296;2022-07-29T18:44:52;5.30;;;2.17;;
49440;SDS011;35317;51.978;6.296;2022-07-29T18:49:53;4.55;;;2.33;;
49440;SDS011;35317;51.978;6.296;2022-07-29T18:54:54;5.07;;;2.35;;
49440;SDS011;35317;51.978;6.296;2022-07-29T18:59:55;4.50;;;2.70;;
49440;SDS011;35317;51.978;6.296;2022-07-29T19:04:56;3.20;;;2.00;;
49440;SDS011;35317;51.978;6.296;2022-07-29T19:09:57;6.72;;;2.50;;
49440;SDS011;35317;51.978;6.296;2022-07-29T19:14:57;6.05;;;2.78;;
49440;SDS011;35317;51.978;6.296;2022-07-29T19:19:58;3.17;;;2.05;;
49440;SDS011;35317;51.978;6.296;2022-07-29T19:24:59;5.60;;;2.30;;
49440;SDS011;35317;51.978;6.296;2022-07-29T19:30:01;5.22;;;2.80;;
49440;SDS011;35317;51.978;6.296;2022-07-29T19:35:04;10.23;;;4.10;;
49440;SDS011;35317;51.978;6.296;2022-07-29T19:40:23;5.28;;;2.30;;
49440;SDS011;35317;51.978;6.296;2022-07-29T19:45:25;5.63;;;2.40;;
49440;SDS011;35317;51.978;6.296;2022-07-29T19:50:26;7.63;;;2.92;;
49440;SDS011;35317;51.978;6.296;2022-07-29T19:55:27;6.75;;;2.85;;
49440;SDS011;35317;51.978;6.296;2022-07-29T20:00:27;9.85;;;2.83;;
49440;SDS011;35317;51.978;6.296;2022-07-29T20:05:30;5.85;;;2.88;;
49440;SDS011;35317;51.978;6.296;2022-07-29T20:10:31;5.63;;;2.55;;
49440;SDS011;35317;51.978;6.296;2022-07-29T20:15:32;7.15;;;2.85;;
49440;SDS011;35317;51.978;6.296;2022-07-29T20:20:33;5.45;;;2.28;;
49440;SDS011;35317;51.978;6.296;2022-07-29T20:25:33;5.63;;;2.50;;
49440;SDS011;35317;51.978;6.296;2022-07-29T20:30:34;3.63;;;2.17;;
49440;SDS011;35317;51.978;6.296;2022-07-29T20:35:35;4.88;;;2.15;;
49440;SDS011;35317;51.978;6.296;2022-07-29T20:40:36;5.22;;;2.03;;
49440;SDS011;35317;51.978;6.296;2022-07-29T20:45:38;3.88;;;2.20;;
49440;SDS011;35317;51.978;6.296;2022-07-29T20:50:39;7.47;;;1.98;;
49440;SDS011;35317;51.978;6.296;2022-07-29T20:55:39;5.10;;;2.17;;
49440;SDS011;35317;51.978;6.296;2022-07-29T21:00:40;4.07;;;1.90;;
49440;SDS011;35317;51.978;6.296;2022-07-29T21:05:41;6.32;;;2.20;;
49440;SDS011;35317;51.978;6.296;2022-07-29T21:10:43;6.68;;;2.20;;
49440;SDS011;35317;51.978;6.296;2022-07-29T21:15:43;5.43;;;2.22;;
49440;SDS011;35317;51.978;6.296;2022-07-29T21:20:48;7.68;;;2.58;;
49440;SDS011;35317;51.978;6.296;2022-07-29T21:25:48;6.93;;;2.38;;
49440;SDS011;35317;51.978;6.296;2022-07-29T21:30:49;5.60;;;2.42;;
49440;SDS011;35317;51.978;6.296;2022-07-29T21:35:50;6.30;;;2.80;;
49440;SDS011;35317;51.978;6.296;2022-07-29T21:40:51;6.38;;;3.33;;
49440;SDS011;35317;51.978;6.296;2022-07-29T21:45:52;8.88;;;3.42;;
49440;SDS011;35317;51.978;6.296;2022-07-29T21:50:55;11.38;;;3.65;;
49440;SDS011;35317;51.978;6.296;2022-07-29T21:55:56;11.05;;;4.20;;
49440;SDS011;35317;51.978;6.296;2022-07-29T22:00:56;13.77;;;4.10;;
49440;SDS011;35317;51.978;6.296;2022-07-29T22:05:59;11.13;;;3.88;;
49440;SDS011;35317;51.978;6.296;2022-07-29T22:11:01;11.07;;;4.95;;
49440;SDS011;35317;51.978;6.296;2022-07-29T22:16:02;11.43;;;4.15;;
49440;SDS011;35317;51.978;6.296;2022-07-29T22:21:03;8.73;;;4.07;;
49440;SDS011;35317;51.978;6.296;2022-07-29T22:26:04;10.88;;;3.63;;
49440;SDS011;35317;51.978;6.296;2022-07-29T22:31:13;8.38;;;3.47;;
49440;SDS011;35317;51.978;6.296;2022-07-29T22:36:15;9.45;;;3.58;;
49440;SDS011;35317;51.978;6.296;2022-07-29T22:41:16;6.95;;;3.92;;
49440;SDS011;35317;51.978;6.296;2022-07-29T22:46:17;7.50;;;4.20;;
49440;SDS011;35317;51.978;6.296;2022-07-29T22:51:18;10.23;;;4.75;;
49440;SDS011;35317;51.978;6.296;2022-07-29T22:56:19;13.93;;;4.78;;
49440;SDS011;35317;51.978;6.296;2022-07-29T23:01:20;9.98;;;4.70;;
49440;SDS011;35317;51.978;6.296;2022-07-29T23:06:22;12.10;;;5.40;;
49440;SDS011;35317;51.978;6.296;2022-07-29T23:11:23;14.55;;;6.57;;
49440;SDS011;35317;51.978;6.296;2022-07-29T23:16:23;9.93;;;6.25;;
49440;SDS011;35317;51.978;6.296;2022-07-29T23:21:24;17.17;;;6.97;;
49440;SDS011;35317;51.978;6.296;2022-07-29T23:26:25;19.55;;;7.53;;
49440;SDS011;35317;51.978;6.296;2022-07-29T23:31:27;17.45;;;9.30;;
49440;SDS011;35317;51.978;6.296;2022-07-29T23:36:27;13.80;;;7.07;;
49440;SDS011;35317;51.978;6.296;2022-07-29T23:41:29;14.60;;;7.88;;
49440;SDS011;35317;51.978;6.296;2022-07-29T23:46:30;15.30;;;7.40;;
49440;SDS011;35317;51.978;6.296;2022-07-29T23:51:31;12.65;;;7.70;;
49440;SDS011;35317;51.978;6.296;2022-07-29T23:56:32;11.70;;;8.13;;
